Sign in

Advertise on goboko.com

You can reach many thousands of active pilots each month by advertising on goboko.com.

Please contact us for details.

Advertising

Info

Aviation weather - KJYO

METAR KJYO 200155Z AUTO 13006KT 10SM OVC055 20/16 A3030 RMK AO2

TAF KIAD 182321Z 1900/2006 04006KT P6SM FEW045 SCT100 FM191600 09005KT P6SM BKN050

ADDS Experimental. Do not use for flight-related decisions.

Javascript required. Ce site nécessite javascript